Darling — VKV7143 — position and weather

sailwx.info

Track history (hours):
 
Tides and Currents Weather Stations Pressure Air Temp Water Temp Dewpoint Dewpoint Depression Visibility Wind Speed Wind Dir Waves Ship Positions

Darling

Last reported at 2018-Jan-24 06:00 UTC. Time now 2018-Jan-24 06:04 UTC.
Position S 32°55' E 151°46'.

Length 24 m; draft 5.8 m.

Type: Tug. MMSI: 503226300.

Date/timePositionNaut miles runAvg speedWind from/ knotsBaromVisibWave heightAir tempDewpointWater temp
2018-Jan-24 06:00S 32°55' E 151°46'0 0.0
2018-Jan-24 05:30S 32°55' E 151°46'0 0.0
2018-Jan-24 05:00S 32°55' E 151°46'0 0.0
2018-Jan-24 04:30S 32°55' E 151°46'2 3.3
2018-Jan-24 03:58S 32°55' E 151°48'1 2.3
2018-Jan-24 03:30S 32°55' E 151°47'1 1.6
2018-Jan-24 02:59S 32°55' E 151°46'2 1.7
2018-Jan-24 01:55S 32°53' E 151°45'2 3.3
2018-Jan-24 01:09S 32°55' E 151°47'1 7.0
2018-Jan-24 00:58S 32°55' E 151°48'2 4.5
2018-Jan-24 00:30S 32°55' E 151°46'0 0.0
2018-Jan-24 00:00S 32°55' E 151°46'0 0.0
2018-Jan-23 23:30S 32°55' E 151°46'0 0.0
2018-Jan-23 23:00S 32°55' E 151°46'0 0.0
2018-Jan-23 22:30S 32°55' E 151°46'0 0.0
2018-Jan-23 22:00S 32°55' E 151°46'0 0.0
2018-Jan-23 21:30S 32°55' E 151°46'0 0.0
2018-Jan-23 21:00S 32°55' E 151°46'2 2.3
2018-Jan-23 20:07S 32°53' E 151°46'1 3.6
2018-Jan-23 19:55S 32°54' E 151°46'2 4.5
2018-Jan-23 19:29S 32°55' E 151°49'1 2.2
2018-Jan-23 18:55S 32°55' E 151°47'2 1.7
2018-Jan-23 17:33S 32°53' E 151°46'0 9.5
2018-Jan-23 17:30S 32°54' E 151°46'2 3.4
2018-Jan-23 17:00S 32°55' E 151°46'0 0.0
2018-Jan-23 16:30S 32°55' E 151°46'0 0.0
2018-Jan-23 16:00S 32°55' E 151°46'0 0.0
2018-Jan-23 15:25S 32°55' E 151°46'0 0.0
2018-Jan-23 15:00S 32°55' E 151°46'0 0.0
2018-Jan-23 14:29S 32°55' E 151°46'0 0.0
2018-Jan-23 14:00S 32°55' E 151°46'0 0.0
2018-Jan-23 13:29S 32°55' E 151°46'0 0.0
2018-Jan-23 13:00S 32°55' E 151°46'2 3.3
2018-Jan-23 12:15S 32°53' E 151°45'0 0.7
2018-Jan-23 11:58S 32°53' E 151°45'1 2.0
2018-Jan-23 11:28S 32°54' E 151°46'2 3.5
2018-Jan-23 10:57S 32°55' E 151°48'1 1.4
2018-Jan-23 10:28S 32°55' E 151°47'0 0.3
2018-Jan-23 10:00S 32°55' E 151°47'0 0.2
2018-Jan-23 09:28S 32°55' E 151°47'2 3.4
2018-Jan-23 08:55S 32°54' E 151°46'1 1.7
2018-Jan-23 08:30S 32°54' E 151°46'1 2.2
2018-Jan-23 08:00S 32°55' E 151°46'0 0.0
2018-Jan-23 07:28S 32°55' E 151°46'2 2.2
2018-Jan-23 06:37S 32°53' E 151°46'0 2.6
2018-Jan-23 06:30S 32°54' E 151°46'2 3.8
2018-Jan-23 06:00S 32°55' E 151°48'0 0.7
2018-Jan-23 05:30S 32°55' E 151°48'1 2.6
2018-Jan-23 04:59S 32°54' E 151°46'1 3.0
2018-Jan-23 04:30S 32°53' E 151°45'0 0.5
2018-Jan-23 04:00S 32°53' E 151°45'0 0.3
2018-Jan-23 03:15S 32°53' E 151°45'1 2.1
2018-Jan-23 02:59S 32°53' E 151°46'2 3.3
2018-Jan-23 02:30S 32°55' E 151°47'1 2.6
2018-Jan-23 02:00S 32°55' E 151°48'2 3.5
2018-Jan-23 01:30S 32°55' E 151°46'0 0.0
2018-Jan-23 01:00S 32°55' E 151°46'0 0.0
2018-Jan-23 00:30S 32°55' E 151°46'0 0.0
2018-Jan-23 00:00S 32°55' E 151°46'0 0.0
2018-Jan-22 23:28S 32°55' E 151°46'0 0.0
2018-Jan-22 23:00S 32°55' E 151°46'0 0.0
2018-Jan-22 22:30S 32°55' E 151°46'0 0.0
2018-Jan-22 22:00S 32°55' E 151°46'0 0.0
2018-Jan-22 21:30S 32°55' E 151°46'0 0.1
2018-Jan-22 21:00S 32°55' E 151°46'1 1.0
2018-Jan-22 20:30S 32°55' E 151°47'2 2.2
2018-Jan-22 19:44S 32°53' E 151°46'1 3.2
2018-Jan-22 19:30S 32°54' E 151°46'1 2.5
2018-Jan-22 19:00S 32°55' E 151°46'0 0.0
2018-Jan-22 18:28S 32°55' E 151°46'0 0.0
2018-Jan-22 17:59S 32°55' E 151°46'0 0.0
2018-Jan-22 17:30S 32°55' E 151°46'0 0.0
2018-Jan-22 17:00S 32°55' E 151°46'0 0.0
2018-Jan-22 16:29S 32°55' E 151°46'2 1.3
2018-Jan-22 15:00S 32°54' E 151°46'2 3.7
2018-Jan-22 14:27S 32°55' E 151°48'1 2.0
2018-Jan-22 13:59S 32°55' E 151°47'2 3.4
2018-Jan-22 13:29S 32°54' E 151°46'1 0.4
2018-Jan-22 11:58S 32°53' E 151°46'1 2.1
2018-Jan-22 11:30S 32°54' E 151°46'0 0.2
2018-Jan-22 10:52S 32°54' E 151°46'2 4.4
2018-Jan-22 10:28S 32°55' E 151°48'2 4.5
2018-Jan-22 10:00S 32°55' E 151°46'0 0.0
2018-Jan-22 09:30S 32°55' E 151°46'0 0.0
2018-Jan-22 09:00S 32°55' E 151°46'2 3.0
2018-Jan-22 08:27S 32°55' E 151°48'1 2.5
2018-Jan-22 07:55S 32°54' E 151°46'0 0.2
2018-Jan-22 07:31S 32°54' E 151°46'1 2.0
2018-Jan-22 06:58S 32°53' E 151°46'1 1.2
2018-Jan-22 06:30S 32°54' E 151°46'2 3.9
2018-Jan-22 05:59S 32°55' E 151°48'1 1.4
2018-Jan-22 05:31S 32°55' E 151°48'2 3.1
2018-Jan-22 05:00S 32°54' E 151°46'1 1.5
2018-Jan-22 04:31S 32°53' E 151°46'1 1.0
2018-Jan-22 04:00S 32°54' E 151°46'0 0.1
2018-Jan-22 03:31S 32°54' E 151°46'1 0.6
2018-Jan-22 02:16S 32°53' E 151°46'1 2.1
2018-Jan-22 02:01S 32°54' E 151°46'2 3.8
2018-Jan-22 01:30S 32°55' E 151°48'1 1.3
2018-Jan-22 01:00S 32°55' E 151°48'1 2.7
2018-Jan-22 00:30S 32°55' E 151°46'1 3.0
2018-Jan-22 00:00S 32°53' E 151°46'0 0.2
2018-Jan-21 23:31S 32°53' E 151°46'2 3.5
2018-Jan-21 22:58S 32°55' E 151°46'0 0.8
2018-Jan-21 22:31S 32°55' E 151°46'0 0.0
2018-Jan-21 22:00S 32°55' E 151°46'0 0.0
2018-Jan-21 21:30S 32°55' E 151°46'0 0.0
2018-Jan-21 21:00S 32°55' E 151°46'0 0.0
2018-Jan-21 20:31S 32°55' E 151°46'0 0.0
2018-Jan-21 20:00S 32°55' E 151°46'0 0.0
2018-Jan-21 19:31S 32°55' E 151°46'0 0.0
2018-Jan-21 18:59S 32°55' E 151°46'0 0.0
2018-Jan-21 18:30S 32°55' E 151°46'0 0.0
2018-Jan-21 17:54S 32°55' E 151°46'0 0.0
2018-Jan-21 17:28S 32°55' E 151°46'0 0.0
2018-Jan-21 17:00S 32°55' E 151°46'0 0.0
2018-Jan-21 16:28S 32°55' E 151°46'0 0.0
2018-Jan-21 16:00S 32°55' E 151°46'0 0.0
2018-Jan-21 15:30S 32°55' E 151°46'0 0.0
2018-Jan-21 15:00S 32°55' E 151°46'0 0.0
2018-Jan-21 14:29S 32°55' E 151°46'0 0.0
2018-Jan-21 13:59S 32°55' E 151°46'0 0.0
2018-Jan-21 13:30S 32°55' E 151°46'0 0.0
2018-Jan-21 12:59S 32°55' E 151°46'0 0.0
2018-Jan-21 12:29S 32°55' E 151°46'0 0.0
2018-Jan-21 11:56S 32°55' E 151°46'0 0.0
2018-Jan-21 11:30S 32°55' E 151°46'0 0.0
2018-Jan-21 10:59S 32°55' E 151°46'0 0.0
2018-Jan-21 10:30S 32°55' E 151°46'0 0.0
2018-Jan-21 10:00S 32°55' E 151°46'0 0.0
2018-Jan-21 09:28S 32°55' E 151°46'0 0.0
2018-Jan-21 09:00S 32°55' E 151°46'0 0.0
2018-Jan-21 08:30S 32°55' E 151°46'0 0.0
2018-Jan-21 07:58S 32°55' E 151°46'1 2.5
2018-Jan-21 07:30S 32°54' E 151°46'0 0.6
2018-Jan-21 07:00S 32°54' E 151°46'1 2.2
2018-Jan-21 06:28S 32°55' E 151°47'1 1.4
2018-Jan-21 06:00S 32°55' E 151°47'1 2.1
2018-Jan-21 05:30S 32°55' E 151°46'0 0.0
2018-Jan-21 05:00S 32°55' E 151°46'0 0.0
2018-Jan-21 04:30S 32°55' E 151°46'2 3.4
2018-Jan-21 03:58S 32°54' E 151°46'0 0.7
2018-Jan-21 03:26S 32°54' E 151°46'2 4.0
2018-Jan-21 03:00S 32°55' E 151°48'2 4.0
2018-Jan-21 02:30S 32°55' E 151°46'0 0.0
2018-Jan-21 02:00S 32°55' E 151°46'0 0.0
2018-Jan-21 01:30S 32°55' E 151°46'0 0.0
2018-Jan-21 01:00S 32°55' E 151°46'0 0.0
2018-Jan-21 00:30S 32°55' E 151°46'1 2.6
2018-Jan-21 00:00S 32°55' E 151°48'1 2.9
2018-Jan-20 23:30S 32°54' E 151°46'1 1.3
2018-Jan-20 22:59S 32°53' E 151°46'2 4.3
2018-Jan-20 22:30S 32°55' E 151°46'0 0.0
2018-Jan-20 22:00S 32°55' E 151°46'0 0.0
2018-Jan-20 21:30S 32°55' E 151°46'0 0.0
2018-Jan-20 21:00S 32°55' E 151°46'0 0.0
2018-Jan-20 20:30S 32°55' E 151°46'0 0.0
2018-Jan-20 20:00S 32°55' E 151°46'0 0.0
2018-Jan-20 19:30S 32°55' E 151°46'0 0.0
2018-Jan-20 19:00S 32°55' E 151°46'0 0.0
2018-Jan-20 18:30S 32°55' E 151°46'0 0.0
2018-Jan-20 18:00S 32°55' E 151°46'0 0.0
2018-Jan-20 17:30S 32°55' E 151°46'0 0.0
2018-Jan-20 17:00S 32°55' E 151°46'0 0.0
2018-Jan-20 16:30S 32°55' E 151°46'0 0.0
2018-Jan-20 16:00S 32°55' E 151°46'0 0.0
2018-Jan-20 15:30S 32°55' E 151°46'0 0.0
2018-Jan-20 15:00S 32°55' E 151°46'0 0.0
2018-Jan-20 14:30S 32°55' E 151°46'0 0.0
2018-Jan-20 14:00S 32°55' E 151°46'0 0.0
2018-Jan-20 13:26S 32°55' E 151°46'0 0.0
2018-Jan-20 13:00S 32°55' E 151°46'0 0.0
2018-Jan-20 12:30S 32°55' E 151°46'0 0.0
2018-Jan-20 12:01S 32°55' E 151°46'0 0.0
2018-Jan-20 11:30S 32°55' E 151°46'0 0.0
2018-Jan-20 10:59S 32°55' E 151°46'0 0.0
2018-Jan-20 10:28S 32°55' E 151°46'0 0.0
2018-Jan-20 10:00S 32°55' E 151°46'0 0.0
2018-Jan-20 09:29S 32°55' E 151°46'0 0.0
2018-Jan-20 09:00S 32°55' E 151°46'0 0.0
2018-Jan-20 08:25S 32°55' E 151°46'0 0.0
2018-Jan-20 07:59S 32°55' E 151°46'0 0.0
2018-Jan-20 07:28S 32°55' E 151°46'0 0.0
2018-Jan-20 06:57S 32°55' E 151°46'0 0.0
2018-Jan-20 06:28S 32°55' E 151°46'0 0.0
2018-Jan-20 06:01S 32°55' E 151°46'0 0.0
2018-Jan-20 05:30S 32°55' E 151°46'0 0.0
2018-Jan-20 05:00S 32°55' E 151°46'0 0.0
2018-Jan-20 04:30S 32°55' E 151°46'0 0.0
2018-Jan-20 03:57S 32°55' E 151°46'0 0.0
2018-Jan-20 03:30S 32°55' E 151°46'0 0.0
2018-Jan-20 03:00S 32°55' E 151°46'0 0.0
2018-Jan-20 02:30S 32°55' E 151°46'0 0.0
2018-Jan-20 02:00S 32°55' E 151°46'0 0.0
2018-Jan-20 01:30S 32°55' E 151°46'0 0.0
2018-Jan-20 01:00S 32°55' E 151°46'0 0.0
2018-Jan-20 00:30S 32°55' E 151°46'0 0.0
2018-Jan-20 00:00S 32°55' E 151°46'0 0.0
2018-Jan-19 23:30S 32°55' E 151°46'0 0.0
2018-Jan-19 22:59S 32°55' E 151°46'0 0.0
2018-Jan-19 22:30S 32°55' E 151°46'0 0.0
2018-Jan-19 22:00S 32°55' E 151°46'0 0.0
2018-Jan-19 21:30S 32°55' E 151°46'0 0.0
2018-Jan-19 20:54S 32°55' E 151°46'0 0.0
2018-Jan-19 20:30S 32°55' E 151°46'0 0.0
2018-Jan-19 20:00S 32°55' E 151°46'0 0.0
2018-Jan-19 19:30S 32°55' E 151°46'0 0.0
2018-Jan-19 19:00S 32°55' E 151°46'0 0.0
2018-Jan-19 18:30S 32°55' E 151°46'0 0.0
2018-Jan-19 18:00S 32°55' E 151°46'0 0.0
2018-Jan-19 17:29S 32°55' E 151°46'0 0.0
2018-Jan-19 16:59S 32°55' E 151°46'0 0.0
2018-Jan-19 16:30S 32°55' E 151°46'0 0.4
2018-Jan-19 16:00S 32°55' E 151°46'2 4.0
2018-Jan-19 15:28S 32°54' E 151°49'2 4.9
2018-Jan-19 15:00S 32°55' E 151°46'0 0.4
2018-Jan-19 14:30S 32°55' E 151°46'0 0.0
2018-Jan-19 14:00S 32°55' E 151°46'0 0.0
2018-Jan-19 13:30S 32°55' E 151°46'0 0.0
2018-Jan-19 13:00S 32°55' E 151°46'0 0.0
2018-Jan-19 12:30S 32°55' E 151°46'0 0.0
2018-Jan-19 12:00S 32°55' E 151°46'0 0.0
2018-Jan-19 11:30S 32°55' E 151°46'0 0.0
2018-Jan-19 11:00S 32°55' E 151°46'0 0.0
2018-Jan-19 10:30S 32°55' E 151°46'0 0.0
2018-Jan-19 10:00S 32°55' E 151°46'0 0.0
2018-Jan-19 09:28S 32°55' E 151°46'1 1.3
2018-Jan-19 09:00S 32°55' E 151°46'1 2.8
2018-Jan-19 08:28S 32°53' E 151°46'2 3.2
2018-Jan-19 07:59S 32°55' E 151°47'1 3.0
2018-Jan-19 07:30S 32°55' E 151°48'2 3.8
2018-Jan-19 07:00S 32°55' E 151°46'0 0.0
2018-Jan-19 06:30S 32°55' E 151°46'0 0.0
2018-Jan-19 06:00S 32°55' E 151°46'0 0.0
2018-Jan-19 05:30S 32°55' E 151°46'0 0.0
2018-Jan-19 05:00S 32°55' E 151°46'0 0.0
2018-Jan-19 04:30S 32°55' E 151°46'0 0.0
2018-Jan-19 04:00S 32°55' E 151°46'0 0.0
2018-Jan-19 03:30S 32°55' E 151°46'0 0.0
2018-Jan-19 03:00S 32°55' E 151°46'0 0.0
2018-Jan-19 02:30S 32°55' E 151°46'0 0.1
2018-Jan-19 02:00S 32°55' E 151°46'0 0.1
2018-Jan-19 01:30S 32°55' E 151°46'0 0.0
2018-Jan-19 01:00S 32°55' E 151°46'0 0.0
2018-Jan-19 00:30S 32°55' E 151°46'0 0.0
2018-Jan-19 00:00S 32°55' E 151°46'0 0.0
2018-Jan-18 23:30S 32°55' E 151°46'0 0.0
2018-Jan-18 23:00S 32°55' E 151°46'0 0.0
2018-Jan-18 22:30S 32°55' E 151°46'0 0.0
2018-Jan-18 22:00S 32°55' E 151°46'0 0.0
2018-Jan-18 21:30S 32°55' E 151°46'0 0.0
2018-Jan-18 21:00S 32°55' E 151°46'0 0.0
2018-Jan-18 20:30S 32°55' E 151°46'0 0.0
2018-Jan-18 20:00S 32°55' E 151°46'0 0.0
2018-Jan-18 19:30S 32°55' E 151°46'0 0.0
2018-Jan-18 19:00S 32°55' E 151°46'0 0.0
2018-Jan-18 18:30S 32°55' E 151°46'0 0.0
2018-Jan-18 18:00S 32°55' E 151°46'0 0.0
2018-Jan-18 17:31S 32°55' E 151°46'0 0.0
2018-Jan-18 17:00S 32°55' E 151°46'0 0.0
2018-Jan-18 16:30S 32°55' E 151°46'0 0.0
2018-Jan-18 16:00S 32°55' E 151°46'0 0.0
2018-Jan-18 15:29S 32°55' E 151°46'0 0.0
2018-Jan-18 15:00S 32°55' E 151°46'0 0.0
2018-Jan-18 14:25S 32°55' E 151°46'0 0.0
2018-Jan-18 13:50S 32°55' E 151°46'0 0.0
2018-Jan-18 13:25S 32°55' E 151°46'0 0.0
2018-Jan-18 12:57S 32°55' E 151°46'0 0.0
2018-Jan-18 12:30S 32°55' E 151°46'1 1.9
2018-Jan-18 11:58S 32°55' E 151°47'2 2.3
2018-Jan-18 11:03S 32°53' E 151°46'0 3.1
2018-Jan-18 10:59S 32°53' E 151°46'1 1.2
2018-Jan-18 10:27S 32°53' E 151°45'1 2.7
2018-Jan-18 10:00S 32°54' E 151°46'2 3.3
2018-Jan-18 09:30S 32°55' E 151°46'0 0.0
2018-Jan-18 09:00S 32°55' E 151°46'0 0.0
2018-Jan-18 08:31S 32°55' E 151°46'0 0.0
2018-Jan-18 08:00S 32°55' E 151°46'0 0.0
2018-Jan-18 07:30S 32°55' E 151°46'0 0.0
2018-Jan-18 07:00S 32°55' E 151°46'0 0.0
2018-Jan-18 06:30S 32°55' E 151°46'0 0.0
2018-Jan-18 06:00S 32°55' E 151°46'0 0.0
2018-Jan-18 05:29S 32°55' E 151°46'0 0.0
2018-Jan-18 04:58S 32°55' E 151°46'0 0.0
2018-Jan-18 04:28S 32°55' E 151°46'0 0.0
2018-Jan-18 04:00S 32°55' E 151°46'0 0.0
2018-Jan-18 03:30S 32°55' E 151°46'0 0.0
2018-Jan-18 02:59S 32°55' E 151°46'0 0.0
2018-Jan-18 02:30S 32°55' E 151°46'0 0.0
2018-Jan-18 02:00S 32°55' E 151°46'0 0.0
2018-Jan-18 01:30S 32°55' E 151°46'0 0.0
2018-Jan-18 01:00S 32°55' E 151°46'0 0.0
2018-Jan-18 00:00S 32°55' E 151°46'0 0.0
2018-Jan-17 23:57S 32°55' E 151°46'  
Track history (hours):
 
Tides and Currents Weather Stations Pressure Air Temp Water Temp Dewpoint Dewpoint Depression Visibility Wind Speed Wind Dir Waves Ship Positions

Darling

Last reported at 2018-Jan-24 06:00 UTC. Time now 2018-Jan-24 06:04 UTC.
Position S 32°55' E 151°46'.

Length 24 m; draft 5.8 m.

Type: Tug. MMSI: 503226300.

Date/timePositionNaut miles runAvg speedWind from/ knotsBaromVisibWave heightAir tempDewpointWater temp
2018-Jan-24 06:00S 32°55' E 151°46'0 0.0
2018-Jan-24 05:30S 32°55' E 151°46'0 0.0
2018-Jan-24 05:00S 32°55' E 151°46'0 0.0
2018-Jan-24 04:30S 32°55' E 151°46'2 3.3
2018-Jan-24 03:58S 32°55' E 151°48'1 2.3
2018-Jan-24 03:30S 32°55' E 151°47'1 1.6
2018-Jan-24 02:59S 32°55' E 151°46'2 1.7
2018-Jan-24 01:55S 32°53' E 151°45'2 3.3
2018-Jan-24 01:09S 32°55' E 151°47'1 7.0
2018-Jan-24 00:58S 32°55' E 151°48'2 4.5
2018-Jan-24 00:30S 32°55' E 151°46'0 0.0
2018-Jan-24 00:00S 32°55' E 151°46'0 0.0
2018-Jan-23 23:30S 32°55' E 151°46'0 0.0
2018-Jan-23 23:00S 32°55' E 151°46'0 0.0
2018-Jan-23 22:30S 32°55' E 151°46'0 0.0
2018-Jan-23 22:00S 32°55' E 151°46'0 0.0
2018-Jan-23 21:30S 32°55' E 151°46'0 0.0
2018-Jan-23 21:00S 32°55' E 151°46'2 2.3
2018-Jan-23 20:07S 32°53' E 151°46'1 3.6
2018-Jan-23 19:55S 32°54' E 151°46'2 4.5
2018-Jan-23 19:29S 32°55' E 151°49'1 2.2
2018-Jan-23 18:55S 32°55' E 151°47'2 1.7
2018-Jan-23 17:33S 32°53' E 151°46'0 9.5
2018-Jan-23 17:30S 32°54' E 151°46'2 3.4
2018-Jan-23 17:00S 32°55' E 151°46'0 0.0
2018-Jan-23 16:30S 32°55' E 151°46'0 0.0
2018-Jan-23 16:00S 32°55' E 151°46'0 0.0
2018-Jan-23 15:25S 32°55' E 151°46'0 0.0
2018-Jan-23 15:00S 32°55' E 151°46'0 0.0
2018-Jan-23 14:29S 32°55' E 151°46'0 0.0
2018-Jan-23 14:00S 32°55' E 151°46'0 0.0
2018-Jan-23 13:29S 32°55' E 151°46'0 0.0
2018-Jan-23 13:00S 32°55' E 151°46'2 3.3
2018-Jan-23 12:15S 32°53' E 151°45'0 0.7
2018-Jan-23 11:58S 32°53' E 151°45'1 2.0
2018-Jan-23 11:28S 32°54' E 151°46'2 3.5
2018-Jan-23 10:57S 32°55' E 151°48'1 1.4
2018-Jan-23 10:28S 32°55' E 151°47'0 0.3
2018-Jan-23 10:00S 32°55' E 151°47'0 0.2
2018-Jan-23 09:28S 32°55' E 151°47'2 3.4
2018-Jan-23 08:55S 32°54' E 151°46'1 1.7
2018-Jan-23 08:30S 32°54' E 151°46'1 2.2
2018-Jan-23 08:00S 32°55' E 151°46'0 0.0
2018-Jan-23 07:28S 32°55' E 151°46'2 2.2
2018-Jan-23 06:37S 32°53' E 151°46'0 2.6
2018-Jan-23 06:30S 32°54' E 151°46'2 3.8
2018-Jan-23 06:00S 32°55' E 151°48'0 0.7
2018-Jan-23 05:30S 32°55' E 151°48'1 2.6
2018-Jan-23 04:59S 32°54' E 151°46'1 3.0
2018-Jan-23 04:30S 32°53' E 151°45'0 0.5
2018-Jan-23 04:00S 32°53' E 151°45'0 0.3
2018-Jan-23 03:15S 32°53' E 151°45'1 2.1
2018-Jan-23 02:59S 32°53' E 151°46'2 3.3
2018-Jan-23 02:30S 32°55' E 151°47'1 2.6
2018-Jan-23 02:00S 32°55' E 151°48'2 3.5
2018-Jan-23 01:30S 32°55' E 151°46'0 0.0
2018-Jan-23 01:00S 32°55' E 151°46'0 0.0
2018-Jan-23 00:30S 32°55' E 151°46'0 0.0
2018-Jan-23 00:00S 32°55' E 151°46'0 0.0
2018-Jan-22 23:28S 32°55' E 151°46'0 0.0
2018-Jan-22 23:00S 32°55' E 151°46'0 0.0
2018-Jan-22 22:30S 32°55' E 151°46'0 0.0
2018-Jan-22 22:00S 32°55' E 151°46'0 0.0
2018-Jan-22 21:30S 32°55' E 151°46'0 0.1
2018-Jan-22 21:00S 32°55' E 151°46'1 1.0
2018-Jan-22 20:30S 32°55' E 151°47'2 2.2
2018-Jan-22 19:44S 32°53' E 151°46'1 3.2
2018-Jan-22 19:30S 32°54' E 151°46'1 2.5
2018-Jan-22 19:00S 32°55' E 151°46'0 0.0
2018-Jan-22 18:28S 32°55' E 151°46'0 0.0
2018-Jan-22 17:59S 32°55' E 151°46'0 0.0
2018-Jan-22 17:30S 32°55' E 151°46'0 0.0
2018-Jan-22 17:00S 32°55' E 151°46'0 0.0
2018-Jan-22 16:29S 32°55' E 151°46'2 1.3
2018-Jan-22 15:00S 32°54' E 151°46'2 3.7
2018-Jan-22 14:27S 32°55' E 151°48'1 2.0
2018-Jan-22 13:59S 32°55' E 151°47'2 3.4
2018-Jan-22 13:29S 32°54' E 151°46'1 0.4
2018-Jan-22 11:58S 32°53' E 151°46'1 2.1
2018-Jan-22 11:30S 32°54' E 151°46'0 0.2
2018-Jan-22 10:52S 32°54' E 151°46'2 4.4
2018-Jan-22 10:28S 32°55' E 151°48'2 4.5
2018-Jan-22 10:00S 32°55' E 151°46'0 0.0
2018-Jan-22 09:30S 32°55' E 151°46'0 0.0
2018-Jan-22 09:00S 32°55' E 151°46'2 3.0
2018-Jan-22 08:27S 32°55' E 151°48'1 2.5
2018-Jan-22 07:55S 32°54' E 151°46'0 0.2
2018-Jan-22 07:31S 32°54' E 151°46'1 2.0
2018-Jan-22 06:58S 32°53' E 151°46'1 1.2
2018-Jan-22 06:30S 32°54' E 151°46'2 3.9
2018-Jan-22 05:59S 32°55' E 151°48'1 1.4
2018-Jan-22 05:31S 32°55' E 151°48'2 3.1
2018-Jan-22 05:00S 32°54' E 151°46'1 1.5
2018-Jan-22 04:31S 32°53' E 151°46'1 1.0
2018-Jan-22 04:00S 32°54' E 151°46'0 0.1
2018-Jan-22 03:31S 32°54' E 151°46'1 0.6
2018-Jan-22 02:16S 32°53' E 151°46'1 2.1
2018-Jan-22 02:01S 32°54' E 151°46'2 3.8
2018-Jan-22 01:30S 32°55' E 151°48'1 1.3
2018-Jan-22 01:00S 32°55' E 151°48'1 2.7
2018-Jan-22 00:30S 32°55' E 151°46'1 3.0
2018-Jan-22 00:00S 32°53' E 151°46'0 0.2
2018-Jan-21 23:31S 32°53' E 151°46'2 3.5
2018-Jan-21 22:58S 32°55' E 151°46'0 0.8
2018-Jan-21 22:31S 32°55' E 151°46'0 0.0
2018-Jan-21 22:00S 32°55' E 151°46'0 0.0
2018-Jan-21 21:30S 32°55' E 151°46'0 0.0
2018-Jan-21 21:00S 32°55' E 151°46'0 0.0
2018-Jan-21 20:31S 32°55' E 151°46'0 0.0
2018-Jan-21 20:00S 32°55' E 151°46'0 0.0
2018-Jan-21 19:31S 32°55' E 151°46'0 0.0
2018-Jan-21 18:59S 32°55' E 151°46'0 0.0
2018-Jan-21 18:30S 32°55' E 151°46'0 0.0
2018-Jan-21 17:54S 32°55' E 151°46'0 0.0
2018-Jan-21 17:28S 32°55' E 151°46'0 0.0
2018-Jan-21 17:00S 32°55' E 151°46'0 0.0
2018-Jan-21 16:28S 32°55' E 151°46'0 0.0
2018-Jan-21 16:00S 32°55' E 151°46'0 0.0
2018-Jan-21 15:30S 32°55' E 151°46'0 0.0
2018-Jan-21 15:00S 32°55' E 151°46'0 0.0
2018-Jan-21 14:29S 32°55' E 151°46'0 0.0
2018-Jan-21 13:59S 32°55' E 151°46'0 0.0
2018-Jan-21 13:30S 32°55' E 151°46'0 0.0
2018-Jan-21 12:59S 32°55' E 151°46'0 0.0
2018-Jan-21 12:29S 32°55' E 151°46'0 0.0
2018-Jan-21 11:56S 32°55' E 151°46'0 0.0
2018-Jan-21 11:30S 32°55' E 151°46'0 0.0
2018-Jan-21 10:59S 32°55' E 151°46'0 0.0
2018-Jan-21 10:30S 32°55' E 151°46'0 0.0
2018-Jan-21 10:00S 32°55' E 151°46'0 0.0
2018-Jan-21 09:28S 32°55' E 151°46'0 0.0
2018-Jan-21 09:00S 32°55' E 151°46'0 0.0
2018-Jan-21 08:30S 32°55' E 151°46'0 0.0
2018-Jan-21 07:58S 32°55' E 151°46'1 2.5
2018-Jan-21 07:30S 32°54' E 151°46'0 0.6
2018-Jan-21 07:00S 32°54' E 151°46'1 2.2
2018-Jan-21 06:28S 32°55' E 151°47'1 1.4
2018-Jan-21 06:00S 32°55' E 151°47'1 2.1
2018-Jan-21 05:30S 32°55' E 151°46'0 0.0
2018-Jan-21 05:00S 32°55' E 151°46'0 0.0
2018-Jan-21 04:30S 32°55' E 151°46'2 3.4
2018-Jan-21 03:58S 32°54' E 151°46'0 0.7
2018-Jan-21 03:26S 32°54' E 151°46'2 4.0
2018-Jan-21 03:00S 32°55' E 151°48'2 4.0
2018-Jan-21 02:30S 32°55' E 151°46'0 0.0
2018-Jan-21 02:00S 32°55' E 151°46'0 0.0
2018-Jan-21 01:30S 32°55' E 151°46'0 0.0
2018-Jan-21 01:00S 32°55' E 151°46'0 0.0
2018-Jan-21 00:30S 32°55' E 151°46'1 2.6
2018-Jan-21 00:00S 32°55' E 151°48'1 2.9
2018-Jan-20 23:30S 32°54' E 151°46'1 1.3
2018-Jan-20 22:59S 32°53' E 151°46'2 4.3
2018-Jan-20 22:30S 32°55' E 151°46'0 0.0
2018-Jan-20 22:00S 32°55' E 151°46'0 0.0
2018-Jan-20 21:30S 32°55' E 151°46'0 0.0
2018-Jan-20 21:00S 32°55' E 151°46'0 0.0
2018-Jan-20 20:30S 32°55' E 151°46'0 0.0
2018-Jan-20 20:00S 32°55' E 151°46'0 0.0
2018-Jan-20 19:30S 32°55' E 151°46'0 0.0
2018-Jan-20 19:00S 32°55' E 151°46'0 0.0
2018-Jan-20 18:30S 32°55' E 151°46'0 0.0
2018-Jan-20 18:00S 32°55' E 151°46'0 0.0
2018-Jan-20 17:30S 32°55' E 151°46'0 0.0
2018-Jan-20 17:00S 32°55' E 151°46'0 0.0
2018-Jan-20 16:30S 32°55' E 151°46'0 0.0
2018-Jan-20 16:00S 32°55' E 151°46'0 0.0
2018-Jan-20 15:30S 32°55' E 151°46'0 0.0
2018-Jan-20 15:00S 32°55' E 151°46'0 0.0
2018-Jan-20 14:30S 32°55' E 151°46'0 0.0
2018-Jan-20 14:00S 32°55' E 151°46'0 0.0
2018-Jan-20 13:26S 32°55' E 151°46'0 0.0
2018-Jan-20 13:00S 32°55' E 151°46'0 0.0
2018-Jan-20 12:30S 32°55' E 151°46'0 0.0
2018-Jan-20 12:01S 32°55' E 151°46'0 0.0
2018-Jan-20 11:30S 32°55' E 151°46'0 0.0
2018-Jan-20 10:59S 32°55' E 151°46'0 0.0
2018-Jan-20 10:28S 32°55' E 151°46'0 0.0
2018-Jan-20 10:00S 32°55' E 151°46'0 0.0
2018-Jan-20 09:29S 32°55' E 151°46'0 0.0
2018-Jan-20 09:00S 32°55' E 151°46'0 0.0
2018-Jan-20 08:25S 32°55' E 151°46'0 0.0
2018-Jan-20 07:59S 32°55' E 151°46'0 0.0
2018-Jan-20 07:28S 32°55' E 151°46'0 0.0
2018-Jan-20 06:57S 32°55' E 151°46'0 0.0
2018-Jan-20 06:28S 32°55' E 151°46'0 0.0
2018-Jan-20 06:01S 32°55' E 151°46'0 0.0
2018-Jan-20 05:30S 32°55' E 151°46'0 0.0
2018-Jan-20 05:00S 32°55' E 151°46'0 0.0
2018-Jan-20 04:30S 32°55' E 151°46'0 0.0
2018-Jan-20 03:57S 32°55' E 151°46'0 0.0
2018-Jan-20 03:30S 32°55' E 151°46'0 0.0
2018-Jan-20 03:00S 32°55' E 151°46'0 0.0
2018-Jan-20 02:30S 32°55' E 151°46'0 0.0
2018-Jan-20 02:00S 32°55' E 151°46'0 0.0
2018-Jan-20 01:30S 32°55' E 151°46'0 0.0
2018-Jan-20 01:00S 32°55' E 151°46'0 0.0
2018-Jan-20 00:30S 32°55' E 151°46'0 0.0
2018-Jan-20 00:00S 32°55' E 151°46'0 0.0
2018-Jan-19 23:30S 32°55' E 151°46'0 0.0
2018-Jan-19 22:59S 32°55' E 151°46'0 0.0
2018-Jan-19 22:30S 32°55' E 151°46'0 0.0
2018-Jan-19 22:00S 32°55' E 151°46'0 0.0
2018-Jan-19 21:30S 32°55' E 151°46'0 0.0
2018-Jan-19 20:54S 32°55' E 151°46'0 0.0
2018-Jan-19 20:30S 32°55' E 151°46'0 0.0
2018-Jan-19 20:00S 32°55' E 151°46'0 0.0
2018-Jan-19 19:30S 32°55' E 151°46'0 0.0
2018-Jan-19 19:00S 32°55' E 151°46'0 0.0
2018-Jan-19 18:30S 32°55' E 151°46'0 0.0
2018-Jan-19 18:00S 32°55' E 151°46'0 0.0
2018-Jan-19 17:29S 32°55' E 151°46'0 0.0
2018-Jan-19 16:59S 32°55' E 151°46'0 0.0
2018-Jan-19 16:30S 32°55' E 151°46'0 0.4
2018-Jan-19 16:00S 32°55' E 151°46'2 4.0
2018-Jan-19 15:28S 32°54' E 151°49'2 4.9
2018-Jan-19 15:00S 32°55' E 151°46'0 0.4
2018-Jan-19 14:30S 32°55' E 151°46'0 0.0
2018-Jan-19 14:00S 32°55' E 151°46'0 0.0
2018-Jan-19 13:30S 32°55' E 151°46'0 0.0
2018-Jan-19 13:00S 32°55' E 151°46'0 0.0
2018-Jan-19 12:30S 32°55' E 151°46'0 0.0
2018-Jan-19 12:00S 32°55' E 151°46'0 0.0
2018-Jan-19 11:30S 32°55' E 151°46'0 0.0
2018-Jan-19 11:00S 32°55' E 151°46'0 0.0
2018-Jan-19 10:30S 32°55' E 151°46'0 0.0
2018-Jan-19 10:00S 32°55' E 151°46'0 0.0
2018-Jan-19 09:28S 32°55' E 151°46'1 1.3
2018-Jan-19 09:00S 32°55' E 151°46'1 2.8
2018-Jan-19 08:28S 32°53' E 151°46'2 3.2
2018-Jan-19 07:59S 32°55' E 151°47'1 3.0
2018-Jan-19 07:30S 32°55' E 151°48'2 3.8
2018-Jan-19 07:00S 32°55' E 151°46'0 0.0
2018-Jan-19 06:30S 32°55' E 151°46'0 0.0
2018-Jan-19 06:00S 32°55' E 151°46'0 0.0
2018-Jan-19 05:30S 32°55' E 151°46'0 0.0
2018-Jan-19 05:00S 32°55' E 151°46'0 0.0
2018-Jan-19 04:30S 32°55' E 151°46'0 0.0
2018-Jan-19 04:00S 32°55' E 151°46'0 0.0
2018-Jan-19 03:30S 32°55' E 151°46'0 0.0
2018-Jan-19 03:00S 32°55' E 151°46'0 0.0
2018-Jan-19 02:30S 32°55' E 151°46'0 0.1
2018-Jan-19 02:00S 32°55' E 151°46'0 0.1
2018-Jan-19 01:30S 32°55' E 151°46'0 0.0
2018-Jan-19 01:00S 32°55' E 151°46'0 0.0
2018-Jan-19 00:30S 32°55' E 151°46'0 0.0
2018-Jan-19 00:00S 32°55' E 151°46'0 0.0
2018-Jan-18 23:30S 32°55' E 151°46'0 0.0
2018-Jan-18 23:00S 32°55' E 151°46'0 0.0
2018-Jan-18 22:30S 32°55' E 151°46'0 0.0
2018-Jan-18 22:00S 32°55' E 151°46'0 0.0
2018-Jan-18 21:30S 32°55' E 151°46'0 0.0
2018-Jan-18 21:00S 32°55' E 151°46'0 0.0
2018-Jan-18 20:30S 32°55' E 151°46'0 0.0
2018-Jan-18 20:00S 32°55' E 151°46'0 0.0
2018-Jan-18 19:30S 32°55' E 151°46'0 0.0
2018-Jan-18 19:00S 32°55' E 151°46'0 0.0
2018-Jan-18 18:30S 32°55' E 151°46'0 0.0
2018-Jan-18 18:00S 32°55' E 151°46'0 0.0
2018-Jan-18 17:31S 32°55' E 151°46'0 0.0
2018-Jan-18 17:00S 32°55' E 151°46'0 0.0
2018-Jan-18 16:30S 32°55' E 151°46'0 0.0
2018-Jan-18 16:00S 32°55' E 151°46'0 0.0
2018-Jan-18 15:29S 32°55' E 151°46'0 0.0
2018-Jan-18 15:00S 32°55' E 151°46'0 0.0
2018-Jan-18 14:25S 32°55' E 151°46'0 0.0
2018-Jan-18 13:50S 32°55' E 151°46'0 0.0
2018-Jan-18 13:25S 32°55' E 151°46'0 0.0
2018-Jan-18 12:57S 32°55' E 151°46'0 0.0
2018-Jan-18 12:30S 32°55' E 151°46'1 1.9
2018-Jan-18 11:58S 32°55' E 151°47'2 2.3
2018-Jan-18 11:03S 32°53' E 151°46'0 3.1
2018-Jan-18 10:59S 32°53' E 151°46'1 1.2
2018-Jan-18 10:27S 32°53' E 151°45'1 2.7
2018-Jan-18 10:00S 32°54' E 151°46'2 3.3
2018-Jan-18 09:30S 32°55' E 151°46'0 0.0
2018-Jan-18 09:00S 32°55' E 151°46'0 0.0
2018-Jan-18 08:31S 32°55' E 151°46'0 0.0
2018-Jan-18 08:00S 32°55' E 151°46'0 0.0
2018-Jan-18 07:30S 32°55' E 151°46'0 0.0
2018-Jan-18 07:00S 32°55' E 151°46'0 0.0
2018-Jan-18 06:30S 32°55' E 151°46'0 0.0
2018-Jan-18 06:00S 32°55' E 151°46'0 0.0
2018-Jan-18 05:29S 32°55' E 151°46'0 0.0
2018-Jan-18 04:58S 32°55' E 151°46'0 0.0
2018-Jan-18 04:28S 32°55' E 151°46'0 0.0
2018-Jan-18 04:00S 32°55' E 151°46'0 0.0
2018-Jan-18 03:30S 32°55' E 151°46'0 0.0
2018-Jan-18 02:59S 32°55' E 151°46'0 0.0
2018-Jan-18 02:30S 32°55' E 151°46'0 0.0
2018-Jan-18 02:00S 32°55' E 151°46'0 0.0
2018-Jan-18 01:30S 32°55' E 151°46'0 0.0
2018-Jan-18 01:00S 32°55' E 151°46'0 0.0
2018-Jan-18 00:00S 32°55' E 151°46'0 0.0
2018-Jan-17 23:57S 32°55' E 151°46'  

Dump ship's entire track history